KLGAGCLP

Guest
Details From KLGA - La Guardia
To GCLP - Gran Canaria - Gando
Flight Number -
Tags Generated
Created
Modified
Stats Distance 2,949 nm / 5,461 km
Max Altitude 0 ft / 0 m
Waypoints 4
Social Downloads 1
Likes 0
Share VATSIM

Download

Looking for another format? Having issues loading an existing format? Contact us
Advertisement - Login to hide

Notes

Generated

Route

KLGA 13919 GDV GCLP

ID Type Via Altitude Latitude Longitude Leg Dist Tot Dist Heading (true) Name
O KLGA APT - 0 ft / 0 m 40.78229˚ -73.87852˚ - 0 nm - -
13919 FIX - 0 ft / 0 m 41.23258˚ -68.82561˚ 230 nm 230 nm 82° / 85° -
GDV VOR - 0 ft / 0 m 28.07708˚ -15.42899˚ 2708 nm 2939 nm 89° / 122° GRAN CANARIA VOR-DME
O GCLP APT - 0 ft / 0 m 27.91818˚ -15.39035˚ 9 nm 2948 nm 168° / 168° -

Altitude Profile

Advertisement - Login to hide

Weather


0- 5 10 15 20 25 30 35+ Temperature / ° C

Clouds and Precipitation
Forecast for 2017-12-14 18:00 UTC. Updated 10 minutes ago

Ground ~20,000 ft ~40,000 ft Winds

KLGA

Details ICAO KLGA (LGA)
Name La Guardia
Region United States
Timezone America/New_York (UTC-5.0)
Stats Elevation 22 ft / 7 m (AMSL)
Location 40.777236° -73.872610°
Runways 2
Magnetic Variation 12.980° W

METAR

KLGA 141651Z 32015KT 10SM SCT023 M01/M07 A2975 RMK AO2 SLP072 T10111072 $

Decode

TAF

KLGA 141519Z 1415/1518 33011KT P6SM BKN015 FM141530 33013KT P6SM SCT025 FM141700 31013G21KT P6SM SCT025 SCT060 FM150000 31011KT P6SM FEW230 FM151300 26006KT P6SM OVC200

Decode

Departure Runways

ID Width Length Bearing (true) Bearing (mag) Surface Threshold Offset Overrun Length
04 151 ft / 46 m 7,002 ft / 2,134 m 32.04° 45.02° Asphalt 0 ft / 0 m 312 ft / 95 m
13 151 ft / 46 m 6,990 ft / 2,130 m 122.24° 135.22° Asphalt 0 ft / 0 m 98 ft / 30 m
22 151 ft / 46 m 7,002 ft / 2,134 m 212.05° 225.03° Asphalt 0 ft / 0 m 92 ft / 28 m
31 151 ft / 46 m 6,990 ft / 2,130 m 302.26° 315.24° Asphalt 0 ft / 0 m 361 ft / 110 m

GCLP

Details ICAO GCLP (LPA)
Name Gran Canaria
Region Canary Islands
Timezone Atlantic/Canary (UTC+0.0)
Stats Elevation 77 ft / 23 m (AMSL)
Location 27.931544° -15.385592°
Runways 2
Magnetic Variation 4.685° W

METAR

GCLP 141730Z 36017KT 9999 FEW030 20/12 Q1024 NOSIG

Decode

TAF

TAF GCLP 141400Z 1415/1515 01018KT 9999 FEW025 TX22/1514Z TN16/1506Z= TAF AMD KDAA 141425Z 1414/1516 30006KT 9999 SCT080 510102 QNH2952INS BECMG 1414/1415 29015G25KT 9999 SCT050 510003 QNH2970INS WND 31015G25KT AFT 1419 BECMG 1421/1422 31015G20KT 9999 FEW200 QNH2992INS BECMG 1500/1501 33006KT 9999 SCT180 QNH3001INS BECMG 1511/1512 10006KT 9999 SCT040 BKN140 QNH3007INS BECMG 1514/1515 13006KT 9999 BKN040 BKN120 620401 QNH3007INS TX05/1418Z TNM06/1509Z

Decode

Destination Runways

ID Width Length Bearing (true) Bearing (mag) Surface Threshold Offset Overrun Length
03L 148 ft / 45 m 10,203 ft / 3,110 m 21.33° 26.01° Asphalt 0 ft / 0 m 656 ft / 200 m
03R 148 ft / 45 m 10,200 ft / 3,109 m 21.32° 26.00° Asphalt 0 ft / 0 m 673 ft / 205 m
21L 148 ft / 45 m 10,200 ft / 3,109 m 201.33° 206.01° Asphalt 0 ft / 0 m 689 ft / 210 m
21R 148 ft / 45 m 10,203 ft / 3,110 m 201.33° 206.01° Asphalt 0 ft / 0 m 755 ft / 230 m

Approach Navaids

Runway Type Ident Frequency Range Bearing (true) Bearing (mag) Slope Elevation
03L Localiser ILP 109.90 MHz 18 nm / 33 km 21.33° 26.02° - 77 ft / 23 m (AMSL)
03L Glidescope ILP 109.90 MHz 10 nm / 19 km 21.33° 26.02° 3.00° 102 ft / 31 m (AMSL)
03L DME ILP 109.90 MHz 18 nm / 33 km - - - 102 ft / 31 m (AMSL)
21R Localiser RLP 110.70 MHz 18 nm / 33 km 201.32° 206.01° - 77 ft / 23 m (AMSL)
21R Glidescope RLP 110.70 MHz 10 nm / 19 km 201.33° 206.02° 3.00° 77 ft / 23 m (AMSL)
21R DME RLP 110.70 MHz 18 nm / 33 km - - - 57 ft / 17 m (AMSL)